createdAt,value
2017-06-15T00:02:11.260Z,16.20
2017-06-15T00:04:38.719Z,16.10
2017-06-15T00:07:06.177Z,16.10
2017-06-15T00:09:33.644Z,16.00
2017-06-15T00:12:01.957Z,16.10
2017-06-15T00:14:29.416Z,16.00
2017-06-15T00:16:56.880Z,16.00
2017-06-15T00:19:24.348Z,15.80
2017-06-15T00:21:51.812Z,15.70
2017-06-15T00:24:19.400Z,15.60
2017-06-15T00:26:46.857Z,15.60
2017-06-15T00:29:14.315Z,15.60
2017-06-15T00:31:41.769Z,15.70
2017-06-15T00:34:09.228Z,15.70
2017-06-15T00:36:36.671Z,15.70
2017-06-15T00:39:04.898Z,15.60
2017-06-15T00:41:32.352Z,15.60
2017-06-15T00:43:59.812Z,15.50
2017-06-15T00:46:27.283Z,15.50
2017-06-15T00:48:54.828Z,15.40
2017-06-15T00:51:22.266Z,15.30
2017-06-15T00:53:49.724Z,15.20
2017-06-15T00:56:17.171Z,15.20
2017-06-15T00:58:44.631Z,15.20
2017-06-15T01:01:12.080Z,15.20
2017-06-15T01:03:40.310Z,15.20
2017-06-15T01:06:07.781Z,15.10
2017-06-15T01:08:35.229Z,15.20
2017-06-15T01:11:02.700Z,15.20
2017-06-15T01:13:30.165Z,15.10
2017-06-15T01:15:57.624Z,15.20
2017-06-15T01:18:25.080Z,15.10
2017-06-15T01:20:52.566Z,14.90
2017-06-15T01:23:20.779Z,14.80
2017-06-15T01:25:48.240Z,14.80
2017-06-15T01:28:15.709Z,14.90
2017-06-15T01:30:43.174Z,14.90
2017-06-15T01:33:10.620Z,14.90
2017-06-15T01:35:38.080Z,14.90
2017-06-15T01:38:05.541Z,15.00
2017-06-15T01:40:32.988Z,15.10
2017-06-15T01:43:00.444Z,15.10
2017-06-15T01:45:27.911Z,15.10
2017-06-15T01:47:55.369Z,15.10
2017-06-15T01:50:22.815Z,15.10
2017-06-15T01:52:50.272Z,15.10
2017-06-15T01:55:17.732Z,15.10
2017-06-15T01:57:45.195Z,15.00
2017-06-15T02:00:12.693Z,15.00
2017-06-15T02:02:40.917Z,14.90
2017-06-15T02:05:08.410Z,14.90
2017-06-15T02:07:35.851Z,14.80
2017-06-15T02:10:03.304Z,14.70
2017-06-15T02:12:30.772Z,14.70
2017-06-15T02:14:58.228Z,14.70
2017-06-15T02:17:25.774Z,14.70
2017-06-15T02:19:53.216Z,14.70
2017-06-15T02:22:20.660Z,14.60
2017-06-15T02:24:48.115Z,14.60
2017-06-15T02:27:15.577Z,14.50
2017-06-15T02:29:43.036Z,14.60
2017-06-15T02:32:10.496Z,14.60
2017-06-15T02:34:37.953Z,14.60
2017-06-15T02:37:05.403Z,14.60
2017-06-15T02:39:33.624Z,14.50
2017-06-15T02:42:02.202Z,14.50
2017-06-15T02:44:29.649Z,14.50
2017-06-15T02:46:57.114Z,14.40
2017-06-15T02:49:24.588Z,14.40
2017-06-15T02:51:52.042Z,14.30
2017-06-15T02:54:19.912Z,14.30
2017-06-15T02:56:47.364Z,14.30
2017-06-15T02:59:14.821Z,14.40
2017-06-15T03:01:42.275Z,14.40
2017-06-15T03:04:09.728Z,14.40
2017-06-15T03:06:37.188Z,14.40
2017-06-15T03:09:04.644Z,14.30
2017-06-15T03:11:32.096Z,14.30
2017-06-15T03:13:59.553Z,14.20
2017-06-15T03:16:27.004Z,14.20
2017-06-15T03:18:54.459Z,14.10
2017-06-15T03:21:21.900Z,14.10
2017-06-15T03:23:50.116Z,14.00
2017-06-15T03:26:17.572Z,14.00
2017-06-15T03:28:45.018Z,14.00
2017-06-15T03:31:12.475Z,14.00
2017-06-15T03:33:39.919Z,14.00
2017-06-15T03:36:07.376Z,14.10
2017-06-15T03:38:34.829Z,14.10
2017-06-15T03:41:02.288Z,14.10
2017-06-15T03:43:29.753Z,14.10
2017-06-15T03:45:57.215Z,14.20
2017-06-15T03:48:24.669Z,14.20
2017-06-15T03:50:52.115Z,14.20
2017-06-15T03:53:19.567Z,14.30
2017-06-15T03:55:47.788Z,14.30
2017-06-15T03:58:15.243Z,14.30
2017-06-15T04:00:42.689Z,14.40
2017-06-15T04:03:10.152Z,14.30
2017-06-15T04:05:37.613Z,14.30
2017-06-15T04:08:05.072Z,14.30
2017-06-15T04:10:32.524Z,14.30
2017-06-15T04:12:59.984Z,14.40
2017-06-15T04:15:27.444Z,14.40
2017-06-15T04:17:54.905Z,14.50
2017-06-15T04:20:22.373Z,14.60
2017-06-15T04:22:49.828Z,14.70
2017-06-15T04:25:17.271Z,14.80
2017-06-15T04:27:44.733Z,14.80
2017-06-15T04:30:12.180Z,14.80
2017-06-15T04:32:39.647Z,14.90
2017-06-15T04:35:07.100Z,14.90
2017-06-15T04:37:34.564Z,14.90
2017-06-15T04:40:02.020Z,15.00
2017-06-15T04:42:29.480Z,15.00
2017-06-15T04:44:56.939Z,15.00
2017-06-15T04:47:24.396Z,15.10
2017-06-15T04:49:51.856Z,15.10
2017-06-15T04:52:19.314Z,15.20
2017-06-15T04:54:46.768Z,15.20
2017-06-15T04:57:14.229Z,15.20
2017-06-15T04:59:41.713Z,15.30
2017-06-15T05:02:09.168Z,15.30
2017-06-15T05:04:36.624Z,15.30
2017-06-15T05:07:04.085Z,15.40
2017-06-15T05:09:31.544Z,15.50
2017-06-15T05:11:58.992Z,15.50
2017-06-15T05:14:26.456Z,15.60
2017-06-15T05:16:53.919Z,15.70
2017-06-15T05:19:21.388Z,15.70
2017-06-15T05:21:48.844Z,15.80
2017-06-15T05:24:16.312Z,15.90
2017-06-15T05:26:44.551Z,16.10
2017-06-15T05:29:12.011Z,16.00
2017-06-15T05:31:39.480Z,16.10
2017-06-15T05:34:06.940Z,16.20
2017-06-15T05:36:34.409Z,16.30
2017-06-15T05:39:01.865Z,16.40
2017-06-15T05:41:29.328Z,16.40
2017-06-15T05:43:56.796Z,16.50
2017-06-15T05:46:24.249Z,16.60
2017-06-15T05:48:51.708Z,16.60
2017-06-15T05:51:19.152Z,16.70
2017-06-15T05:53:46.616Z,16.80
2017-06-15T05:56:14.077Z,16.90
2017-06-15T05:58:41.535Z,17.00
2017-06-15T06:01:08.992Z,17.00
2017-06-15T06:03:36.448Z,17.10
2017-06-15T06:06:03.909Z,17.20
2017-06-15T06:08:31.364Z,17.30
2017-06-15T06:10:58.820Z,17.40
2017-06-15T06:13:26.280Z,17.50
2017-06-15T06:15:53.736Z,17.60
2017-06-15T06:18:21.196Z,17.60
2017-06-15T06:20:48.639Z,17.70
2017-06-15T06:23:16.099Z,17.80
2017-06-15T06:25:43.559Z,17.90
2017-06-15T06:28:11.012Z,18.00
2017-06-15T06:30:38.457Z,18.10
2017-06-15T06:33:05.920Z,18.20
2017-06-15T06:35:33.381Z,18.30
2017-06-15T06:38:00.836Z,18.40
2017-06-15T06:40:28.296Z,18.40
2017-06-15T06:42:55.752Z,18.50
2017-06-15T06:45:23.214Z,18.60
2017-06-15T06:47:50.668Z,18.70
2017-06-15T06:50:18.125Z,18.80
2017-06-15T06:52:45.673Z,18.90
2017-06-15T06:55:13.108Z,19.00
2017-06-15T06:57:40.564Z,19.10
2017-06-15T07:00:08.017Z,19.20
2017-06-15T07:02:35.472Z,19.30
2017-06-15T07:05:02.924Z,19.30
2017-06-15T07:07:30.392Z,19.50
2017-06-15T07:09:57.856Z,19.60
2017-06-15T07:12:25.320Z,19.70
2017-06-15T07:14:52.784Z,19.90
2017-06-15T07:17:20.246Z,20.00
2017-06-15T07:19:47.704Z,20.10
2017-06-15T07:22:15.148Z,20.30
2017-06-15T07:24:42.624Z,20.50
2017-06-15T07:27:10.776Z,20.60
2017-06-15T07:29:38.244Z,20.70
2017-06-15T07:32:05.707Z,20.80
2017-06-15T07:34:33.151Z,20.90
2017-06-15T07:37:00.603Z,21.10
2017-06-15T07:39:28.064Z,21.20
2017-06-15T07:41:55.521Z,21.30
2017-06-15T07:44:22.976Z,21.40
2017-06-15T07:46:50.425Z,21.50
2017-06-15T07:49:18.647Z,21.60
2017-06-15T07:51:46.112Z,21.60
2017-06-15T07:54:13.565Z,21.70
2017-06-15T07:56:41.020Z,21.80
2017-06-15T07:59:08.509Z,21.90
2017-06-15T08:01:35.945Z,22.00
2017-06-15T08:04:03.396Z,22.10
2017-06-15T08:06:30.889Z,22.20
2017-06-15T08:08:58.340Z,22.30
2017-06-15T08:11:25.796Z,22.40
2017-06-15T08:13:53.250Z,22.50
2017-06-15T08:16:20.688Z,22.60
2017-06-15T08:18:48.148Z,22.70
2017-06-15T08:21:15.591Z,22.80
2017-06-15T08:23:43.478Z,22.90
2017-06-15T08:26:10.949Z,23.00
2017-06-15T08:28:38.508Z,23.10
2017-06-15T08:31:05.944Z,23.20
2017-06-15T08:33:33.415Z,23.30
2017-06-15T08:36:00.875Z,23.30
2017-06-15T08:38:28.413Z,23.30
2017-06-15T08:40:55.895Z,23.40
2017-06-15T08:43:23.450Z,23.50
2017-06-15T08:45:50.906Z,23.60
2017-06-15T08:48:18.355Z,23.60
2017-06-15T08:50:45.812Z,23.80
2017-06-15T08:53:13.264Z,23.90
2017-06-15T08:55:40.703Z,24.10
2017-06-15T08:58:08.158Z,24.20
2017-06-15T09:00:35.605Z,24.40
2017-06-15T09:03:03.865Z,24.70
2017-06-15T09:05:31.297Z,24.60
2017-06-15T09:07:58.756Z,24.80
2017-06-15T09:10:26.202Z,25.00
2017-06-15T09:12:53.656Z,25.20
2017-06-15T09:15:21.108Z,25.30
2017-06-15T09:17:48.563Z,25.50
2017-06-15T09:20:16.017Z,25.60
2017-06-15T09:22:43.508Z,25.80
2017-06-15T09:25:10.984Z,25.90
2017-06-15T09:27:39.209Z,26.10
2017-06-15T09:30:06.667Z,26.10
2017-06-15T09:32:34.112Z,26.40
2017-06-15T09:35:01.560Z,26.50
2017-06-15T09:37:29.007Z,26.50
2017-06-15T09:39:57.225Z,26.60
2017-06-15T09:42:24.677Z,26.60
2017-06-15T09:44:52.122Z,26.70
2017-06-15T09:47:19.563Z,26.80
2017-06-15T09:49:47.007Z,26.90
2017-06-15T09:52:15.225Z,27.00
2017-06-15T09:54:42.681Z,27.00
2017-06-15T09:57:10.755Z,27.00
2017-06-15T09:59:38.196Z,27.00
2017-06-15T10:02:05.652Z,27.10
2017-06-15T10:04:33.096Z,27.20
2017-06-15T10:07:01.316Z,27.30
2017-06-15T10:09:28.769Z,27.30
2017-06-15T10:11:56.215Z,27.40
2017-06-15T10:14:23.670Z,27.50
2017-06-15T10:16:51.156Z,27.60
2017-06-15T10:19:18.605Z,27.70
2017-06-15T10:21:46.048Z,27.80
2017-06-15T10:24:13.500Z,27.90
2017-06-15T10:26:40.940Z,28.00
2017-06-15T10:29:08.391Z,28.20
2017-06-15T10:31:35.836Z,28.30
2017-06-15T10:34:04.086Z,28.50
2017-06-15T10:36:31.545Z,28.50
2017-06-15T10:38:58.985Z,28.60
2017-06-15T10:41:26.441Z,28.70
2017-06-15T10:43:53.893Z,28.70
2017-06-15T10:46:21.344Z,28.90
2017-06-15T10:48:48.787Z,29.00
2017-06-15T10:51:16.241Z,29.30
2017-06-15T10:53:43.688Z,29.50
2017-06-15T10:56:11.129Z,29.50
2017-06-15T10:58:39.372Z,29.90
2017-06-15T11:01:06.823Z,29.90
2017-06-15T11:03:34.276Z,30.30
2017-06-15T11:06:01.728Z,30.60
2017-06-15T11:08:29.184Z,31.10
2017-06-15T11:10:56.640Z,31.50
2017-06-15T11:13:24.099Z,32.20
2017-06-15T11:15:51.557Z,33.00
2017-06-15T11:18:19.011Z,33.70
2017-06-15T11:20:46.461Z,34.50
2017-06-15T11:23:13.956Z,35.20
2017-06-15T11:25:41.387Z,35.90
2017-06-15T11:28:08.836Z,36.40
2017-06-15T11:30:36.288Z,36.80
2017-06-15T11:33:03.736Z,36.60
2017-06-15T11:35:31.178Z,36.40
2017-06-15T11:37:59.389Z,36.90
2017-06-15T11:40:26.842Z,36.90
2017-06-15T11:42:54.287Z,36.70
2017-06-15T11:45:21.739Z,36.80
2017-06-15T11:47:49.186Z,36.70
2017-06-15T11:50:17.401Z,35.80
2017-06-15T11:52:44.853Z,35.80
2017-06-15T11:55:12.300Z,36.00
2017-06-15T11:57:39.753Z,35.80
2017-06-15T12:00:07.204Z,36.10
2017-06-15T12:02:34.648Z,36.70
2017-06-15T12:05:02.920Z,37.50
2017-06-15T12:07:31.128Z,37.50
2017-06-15T12:09:58.636Z,37.60
2017-06-15T12:12:26.084Z,37.50
2017-06-15T12:14:53.565Z,37.00
2017-06-15T12:17:21.013Z,36.60
2017-06-15T12:19:48.447Z,36.60
2017-06-15T12:22:15.949Z,36.60
2017-06-15T12:24:44.168Z,35.10
2017-06-15T12:27:11.920Z,35.00
2017-06-15T12:29:39.360Z,34.70
2017-06-15T12:32:06.816Z,34.70
2017-06-15T12:34:35.022Z,34.60
2017-06-15T12:37:02.468Z,34.60
2017-06-15T12:39:29.915Z,34.30
2017-06-15T12:41:57.368Z,34.40
2017-06-15T12:44:24.823Z,34.70
2017-06-15T12:46:52.269Z,34.80
2017-06-15T12:49:20.591Z,35.10
2017-06-15T12:51:48.029Z,35.10
2017-06-15T12:54:15.480Z,35.00
2017-06-15T12:56:42.920Z,35.00
2017-06-15T12:59:11.142Z,34.70
2017-06-15T13:01:38.615Z,34.70
2017-06-15T13:04:06.061Z,34.40
2017-06-15T13:06:33.515Z,34.40
2017-06-15T13:09:00.948Z,34.80
2017-06-15T13:11:28.400Z,35.20
2017-06-15T13:13:56.672Z,36.00
2017-06-15T13:16:24.890Z,35.70
2017-06-15T13:18:52.339Z,35.70
2017-06-15T13:21:19.796Z,35.50
2017-06-15T13:23:47.276Z,35.30
2017-06-15T13:26:14.716Z,35.30
2017-06-15T13:28:42.172Z,35.10
2017-06-15T13:33:46.448Z,34.70
2017-06-15T13:36:13.898Z,34.60
2017-06-15T13:38:41.345Z,34.20
2017-06-15T13:41:08.800Z,33.70
2017-06-15T13:43:36.260Z,33.20
2017-06-15T13:46:03.752Z,32.90
2017-06-15T13:48:31.956Z,32.30
2017-06-15T13:50:59.426Z,32.30
2017-06-15T13:53:26.868Z,31.90
2017-06-15T13:55:54.328Z,31.60
2017-06-15T13:58:21.780Z,31.40
2017-06-15T14:00:49.221Z,31.30
2017-06-15T14:03:16.674Z,31.30
2017-06-15T14:05:44.109Z,31.20
2017-06-15T14:08:11.560Z,31.20
2017-06-15T14:10:39.004Z,31.10
2017-06-15T14:13:06.457Z,31.00
2017-06-15T14:15:33.901Z,30.80
2017-06-15T14:18:01.360Z,30.70
2017-06-15T14:20:28.800Z,30.70
2017-06-15T14:22:56.254Z,30.70
2017-06-15T14:25:23.712Z,30.50
2017-06-15T14:27:51.168Z,30.50
2017-06-15T14:30:18.621Z,30.40
2017-06-15T14:32:46.115Z,30.40
2017-06-15T14:35:13.552Z,30.40
2017-06-15T14:37:40.992Z,30.30
2017-06-15T14:40:09.205Z,30.20
2017-06-15T14:42:36.657Z,30.20
2017-06-15T14:45:04.107Z,30.20
2017-06-15T14:47:31.556Z,30.10
2017-06-15T14:49:59.004Z,30.00
2017-06-15T14:52:27.225Z,29.80
2017-06-15T14:54:54.668Z,29.80
2017-06-15T14:57:22.115Z,29.70
2017-06-15T14:59:49.567Z,29.60
2017-06-15T15:02:17.015Z,29.50
2017-06-15T15:04:44.468Z,29.30
2017-06-15T15:07:12.777Z,29.00
2017-06-15T15:09:40.909Z,29.00
2017-06-15T15:12:09.128Z,28.80
2017-06-15T15:14:36.578Z,28.80
2017-06-15T15:17:04.041Z,28.80
2017-06-15T15:19:33.031Z,28.60
2017-06-15T15:22:00.483Z,28.50
2017-06-15T15:24:27.920Z,28.40
2017-06-15T15:26:55.374Z,28.20
2017-06-15T15:29:23.592Z,27.90
2017-06-15T15:31:51.049Z,27.80
2017-06-15T15:34:18.504Z,27.80
2017-06-15T15:36:45.955Z,27.60
2017-06-15T15:39:13.404Z,27.60
2017-06-15T15:41:40.852Z,27.50
2017-06-15T15:44:08.329Z,27.50
2017-06-15T15:46:35.793Z,27.50
2017-06-15T15:49:03.242Z,27.40
2017-06-15T15:51:30.693Z,27.30
2017-06-15T15:53:58.140Z,27.30
2017-06-15T15:56:25.588Z,27.30
2017-06-15T15:58:53.876Z,27.20
2017-06-15T16:01:21.328Z,27.20
2017-06-15T16:03:48.780Z,27.20
2017-06-15T16:06:17.001Z,27.10
2017-06-15T16:08:44.462Z,27.10
2017-06-15T16:11:11.996Z,27.00
2017-06-15T16:13:39.436Z,26.90
2017-06-15T16:16:07.668Z,26.80
2017-06-15T16:18:35.142Z,26.70
2017-06-15T16:21:02.580Z,26.60
2017-06-15T16:23:30.042Z,26.50
2017-06-15T16:25:57.512Z,26.40
2017-06-15T16:28:24.962Z,26.20
2017-06-15T16:30:52.412Z,25.80
2017-06-15T16:33:19.864Z,25.40
2017-06-15T16:35:47.328Z,25.00
2017-06-15T16:38:14.776Z,24.70
2017-06-15T16:40:42.232Z,24.50
2017-06-15T16:43:09.696Z,24.30
2017-06-15T16:45:37.140Z,24.10
2017-06-15T16:48:04.596Z,24.00
2017-06-15T16:50:32.064Z,23.80
2017-06-15T16:52:59.520Z,23.70
2017-06-15T16:55:26.967Z,23.60
2017-06-15T16:57:54.430Z,23.70
2017-06-15T17:00:22.087Z,23.60
2017-06-15T17:02:49.541Z,23.40
2017-06-15T17:05:17.032Z,23.30
2017-06-15T17:07:44.495Z,23.20
2017-06-15T17:10:11.937Z,23.10
2017-06-15T17:12:39.391Z,23.00
2017-06-15T17:15:06.896Z,22.90
2017-06-15T17:17:35.113Z,23.00
2017-06-15T17:20:02.560Z,23.00
2017-06-15T17:22:30.009Z,23.70
2017-06-15T17:24:57.469Z,24.50
2017-06-15T17:27:24.960Z,25.30
2017-06-15T17:29:52.408Z,26.30
2017-06-15T17:32:19.863Z,27.20
2017-06-15T17:34:47.322Z,27.90
2017-06-15T17:37:14.776Z,28.40
2017-06-15T17:39:42.221Z,28.70
2017-06-15T17:42:09.672Z,29.00
2017-06-15T17:44:37.125Z,29.30
2017-06-15T17:47:04.609Z,29.60
2017-06-15T17:49:32.062Z,29.80
2017-06-15T17:51:59.500Z,29.80
2017-06-15T17:54:26.953Z,29.90
2017-06-15T17:56:55.162Z,29.80
2017-06-15T17:59:22.620Z,29.80
2017-06-15T18:01:50.060Z,29.10
2017-06-15T18:04:17.516Z,28.40
2017-06-15T18:06:44.968Z,27.90
2017-06-15T18:09:12.408Z,27.60
2017-06-15T18:11:40.630Z,27.40
2017-06-15T18:14:08.132Z,27.40
2017-06-15T18:16:36.356Z,27.40
2017-06-15T18:19:03.798Z,27.40
2017-06-15T18:21:31.249Z,27.50
2017-06-15T18:23:58.712Z,27.40
2017-06-15T18:26:26.908Z,27.50
2017-06-15T18:28:54.361Z,27.40
2017-06-15T18:31:21.809Z,27.40
2017-06-15T18:33:49.260Z,27.30
2017-06-15T18:36:16.702Z,27.10
2017-06-15T18:38:44.920Z,26.50
2017-06-15T18:41:12.369Z,26.50
2017-06-15T18:43:39.827Z,26.20
2017-06-15T18:46:07.280Z,26.00
2017-06-15T18:48:34.727Z,25.80
2017-06-15T18:51:02.181Z,25.50
2017-06-15T18:53:29.637Z,25.20
2017-06-15T18:55:57.081Z,25.00
2017-06-15T18:58:25.397Z,24.60
2017-06-15T19:00:52.853Z,24.60
2017-06-15T19:03:20.293Z,24.50
2017-06-15T19:05:47.767Z,24.30
2017-06-15T19:08:15.221Z,24.20
2017-06-15T19:10:42.685Z,24.00
2017-06-15T19:13:10.144Z,23.90
2017-06-15T19:15:37.600Z,23.80
2017-06-15T19:18:05.053Z,23.70
2017-06-15T19:20:32.494Z,23.60
2017-06-15T19:22:59.976Z,23.40
2017-06-15T19:25:27.408Z,23.30
2017-06-15T19:27:54.860Z,23.10
2017-06-15T19:30:22.376Z,22.90
2017-06-15T19:32:49.828Z,22.80
2017-06-15T19:35:17.280Z,22.60
2017-06-15T19:37:44.724Z,22.40
2017-06-15T19:40:12.194Z,22.20
2017-06-15T19:42:39.636Z,22.10
2017-06-15T19:45:07.089Z,22.10
2017-06-15T19:47:34.531Z,22.00
2017-06-15T19:50:01.984Z,21.90
2017-06-15T19:52:29.432Z,21.90
2017-06-15T19:54:57.656Z,21.80
2017-06-15T19:57:25.116Z,21.70
2017-06-15T19:59:52.564Z,21.70
2017-06-15T20:02:20.020Z,21.60
2017-06-15T20:04:47.453Z,21.50
2017-06-15T20:07:14.897Z,21.50
2017-06-15T20:09:43.118Z,21.40
2017-06-15T20:12:10.581Z,21.40
2017-06-15T20:14:38.032Z,21.30
2017-06-15T20:17:05.492Z,21.30
2017-06-15T20:19:32.948Z,21.20
2017-06-15T20:22:00.404Z,21.20
2017-06-15T20:24:27.860Z,21.10
2017-06-15T20:26:55.316Z,21.00
2017-06-15T20:29:22.810Z,21.00
2017-06-15T20:31:50.252Z,20.90
2017-06-15T20:34:17.701Z,20.80
2017-06-15T20:36:45.195Z,20.70
2017-06-15T20:39:12.613Z,20.70
2017-06-15T20:41:40.067Z,20.70
2017-06-15T20:44:07.519Z,20.60
2017-06-15T20:46:34.972Z,20.60
2017-06-15T20:49:02.431Z,20.50
2017-06-15T20:51:29.881Z,20.50
2017-06-15T20:53:57.336Z,20.40
2017-06-15T20:56:24.800Z,20.40
2017-06-15T20:58:52.262Z,20.30
2017-06-15T21:01:19.717Z,20.30
2017-06-15T21:03:47.172Z,20.20
2017-06-15T21:06:14.639Z,20.30
2017-06-15T21:08:42.099Z,20.20
2017-06-15T21:11:09.560Z,20.20
2017-06-15T21:13:37.016Z,20.20
2017-06-15T21:16:04.472Z,20.30
2017-06-15T21:18:31.932Z,20.30
2017-06-15T21:20:59.388Z,20.50
2017-06-15T21:23:26.836Z,20.60
2017-06-15T21:25:54.292Z,20.60
2017-06-15T21:28:21.745Z,20.60
2017-06-15T21:30:49.200Z,20.70
2017-06-15T21:33:16.665Z,20.70
2017-06-15T21:35:44.116Z,20.80
2017-06-15T21:38:11.572Z,20.80
2017-06-15T21:40:39.015Z,20.80
2017-06-15T21:43:07.238Z,20.70
2017-06-15T21:45:34.687Z,20.70
2017-06-15T21:48:02.141Z,20.70
2017-06-15T21:50:29.588Z,20.60
2017-06-15T21:52:57.047Z,20.60
2017-06-15T21:55:24.496Z,20.60
2017-06-15T21:57:51.948Z,20.50
2017-06-15T22:00:19.396Z,20.40
2017-06-15T22:02:46.852Z,20.40
2017-06-15T22:05:15.072Z,20.30
2017-06-15T22:07:42.527Z,20.30
2017-06-15T22:10:09.981Z,20.30
2017-06-15T22:12:37.433Z,20.20
2017-06-15T22:15:04.896Z,20.20
2017-06-15T22:17:32.357Z,20.10
2017-06-15T22:19:59.801Z,20.10
2017-06-15T22:22:27.283Z,20.00
2017-06-15T22:24:54.718Z,20.00
2017-06-15T22:27:22.172Z,19.90
2017-06-15T22:29:49.625Z,19.90
2017-06-15T22:32:17.078Z,19.80
2017-06-15T22:34:44.524Z,19.80
2017-06-15T22:37:12.744Z,19.70
2017-06-15T22:39:40.224Z,19.70
2017-06-15T22:42:07.692Z,19.70
2017-06-15T22:44:35.163Z,19.60
2017-06-15T22:47:02.618Z,19.50
2017-06-15T22:49:30.069Z,19.50
2017-06-15T22:51:57.515Z,19.50
2017-06-15T22:54:24.972Z,19.40
2017-06-15T22:56:52.429Z,19.40
2017-06-15T22:59:19.888Z,19.40
2017-06-15T23:01:47.344Z,19.30
2017-06-15T23:04:14.848Z,19.30
2017-06-15T23:06:42.299Z,19.20
2017-06-15T23:09:09.743Z,19.10
2017-06-15T23:11:37.203Z,19.10
2017-06-15T23:14:04.665Z,19.10
2017-06-15T23:16:32.121Z,19.00
2017-06-15T23:18:59.564Z,19.00
2017-06-15T23:21:27.024Z,19.00
2017-06-15T23:23:54.477Z,18.90
2017-06-15T23:26:21.919Z,18.90
2017-06-15T23:28:49.455Z,18.90
2017-06-15T23:31:16.892Z,18.90
2017-06-15T23:33:44.344Z,18.80
2017-06-15T23:36:11.794Z,18.80
2017-06-15T23:38:39.248Z,18.80
2017-06-15T23:41:07.504Z,18.70
2017-06-15T23:43:34.974Z,18.60
2017-06-15T23:46:03.197Z,18.60
2017-06-15T23:48:30.648Z,18.60
2017-06-15T23:50:58.116Z,18.60
2017-06-15T23:53:25.573Z,18.50
2017-06-15T23:55:53.036Z,18.50
2017-06-15T23:58:20.489Z,18.50
